sensor_id;sensor_type;location;lat;lon;timestamp;temperature;humidity
12889;DHT22;56848;49.896;11.424;2023-04-24T08:41:20;10.90;99.90
12889;DHT22;56848;49.896;11.424;2023-04-24T08:43:46;11.10;99.90
12889;DHT22;56848;49.896;11.424;2023-04-24T08:46:13;11.30;99.90
12889;DHT22;56848;49.896;11.424;2023-04-24T08:48:40;11.60;99.90
12889;DHT22;56848;49.896;11.424;2023-04-24T08:51:07;11.40;99.90
12889;DHT22;56848;49.896;11.424;2023-04-24T08:53:35;11.30;99.90
12889;DHT22;56848;49.896;11.424;2023-04-24T08:56:01;11.30;99.90
12889;DHT22;56848;49.896;11.424;2023-04-24T08:58:28;11.40;99.90
12889;DHT22;56848;49.896;11.424;2023-04-24T09:00:57;11.60;99.90
12889;DHT22;56848;49.896;11.424;2023-04-24T09:03:23;11.40;99.90
12889;DHT22;56848;49.896;11.424;2023-04-24T09:05:49;11.50;99.90
12889;DHT22;56848;49.896;11.424;2023-04-24T09:08:18;11.30;99.90
12889;DHT22;56848;49.896;11.424;2023-04-24T09:10:44;11.10;99.90
12889;DHT22;56848;49.896;11.424;2023-04-24T09:13:09;10.80;99.90
12889;DHT22;56848;49.896;11.424;2023-04-24T09:15:36;10.80;99.90
12889;DHT22;56848;49.896;11.424;2023-04-24T09:18:02;10.80;99.90
12889;DHT22;56848;49.896;11.424;2023-04-24T09:20:28;10.70;99.90
12889;DHT22;56848;49.896;11.424;2023-04-24T09:22:54;10.70;99.90
12889;DHT22;56848;49.896;11.424;2023-04-24T09:25:20;10.80;99.90
12889;DHT22;56848;49.896;11.424;2023-04-24T09:27:47;10.70;99.90
12889;DHT22;56848;49.896;11.424;2023-04-24T09:30:13;10.60;99.90
12889;DHT22;56848;49.896;11.424;2023-04-24T09:32:39;10.70;99.90
12889;DHT22;56848;49.896;11.424;2023-04-24T09:37:41;11.30;99.90
12889;DHT22;56848;49.896;11.424;2023-04-24T09:42:33;11.50;99.90
12889;DHT22;56848;49.896;11.424;2023-04-24T09:44:59;11.70;99.90
12889;DHT22;56848;49.896;11.424;2023-04-24T09:47:24;11.90;99.90
12889;DHT22;56848;49.896;11.424;2023-04-24T09:49:50;12.20;99.90
12889;DHT22;56848;49.896;11.424;2023-04-24T09:52:15;12.70;99.90
12889;DHT22;56848;49.896;11.424;2023-04-24T09:54:41;12.70;99.90
12889;DHT22;56848;49.896;11.424;2023-04-24T09:57:09;12.00;99.90
12889;DHT22;56848;49.896;11.424;2023-04-24T09:59:35;12.00;99.90
12889;DHT22;56848;49.896;11.424;2023-04-24T10:02:17;12.10;99.90
12889;DHT22;56848;49.896;11.424;2023-04-24T10:04:54;12.40;99.90
12889;DHT22;56848;49.896;11.424;2023-04-24T10:07:20;12.30;99.90
12889;DHT22;56848;49.896;11.424;2023-04-24T10:09:46;11.80;99.90
12889;DHT22;56848;49.896;11.424;2023-04-24T10:12:13;11.60;99.90
12889;DHT22;56848;49.896;11.424;2023-04-24T10:14:40;11.50;99.90
12889;DHT22;56848;49.896;11.424;2023-04-24T10:17:06;11.60;99.90
12889;DHT22;56848;49.896;11.424;2023-04-24T10:19:32;11.80;99.90
12889;DHT22;56848;49.896;11.424;2023-04-24T10:21:59;12.00;99.90
12889;DHT22;56848;49.896;11.424;2023-04-24T10:24:25;12.20;99.90
12889;DHT22;56848;49.896;11.424;2023-04-24T10:26:52;12.10;99.90
12889;DHT22;56848;49.896;11.424;2023-04-24T10:29:18;12.10;99.90
